ヤンゴン の空港の天気 - METARとTAF

ヤンゴン国際空港 ( VYYY / RGN ) - ミャンマー ヤンゴン
飛行場実況気象(Metar)
観測時間01/25 13:00 +0630 (01/25 06:30 UTC)
風向・風速北西 5m/s
視程8000m
天気現象
なし
気温30℃
湿度52%
気圧1012hPa
METARVYYY 250630Z 32010KT 8000 NSC 30/19 Q1012 NOSIG
過去の天気等 Google飛行場航空写真 Wunderground天気予報

過去48時間のMETAR

飛行場予報(TAF)
発表時間: 1/25 05:30 +0630 (1/24 23:00 UTC)
予報対象時間: 25日6時 +0630 ~ 26日6時 +0630
風向・風速北西 3m/s
視程8000m
全天の4割程度の雲 雲底高度 3050m
全天の4割程度の雲 雲底高度 7620m
25日7時 +0630 ~ 25日9時 +0630 に徐々に
視程4000m
天気現象もや
25日10時 +0630 ~ 25日16時 +0630 に一時的に
視程6000m
天気現象煙霧
25日16時 +0630 ~ 25日18時 +0630 に徐々に
視程6000m
天気現象煙霧
TAF VYYY 242300Z 2500/2524 32005KT 8000 SCT100 SCT250
BECMG 2501/2503 4000 BR
TEMPO 2504/2510 6000 HZ
BECMG 2510/2512 6000 HZ